createdAt,value
2017-11-06T00:00:28.606Z,4.70
2017-11-06T00:02:56.429Z,4.80
2017-11-06T00:05:22.642Z,4.70
2017-11-06T00:07:48.821Z,4.70
2017-11-06T00:10:15.980Z,4.80
2017-11-06T00:12:42.201Z,4.80
2017-11-06T00:15:08.389Z,4.80
2017-11-06T00:17:35.527Z,4.80
2017-11-06T00:20:01.748Z,4.80
2017-11-06T00:22:27.960Z,4.90
2017-11-06T00:24:54.884Z,4.80
2017-11-06T00:27:21.049Z,4.80
2017-11-06T00:29:48.079Z,4.80
2017-11-06T00:32:15.005Z,4.70
2017-11-06T00:34:41.197Z,4.70
2017-11-06T00:37:07.396Z,4.80
2017-11-06T00:39:33.585Z,4.80
2017-11-06T00:41:59.788Z,4.80
2017-11-06T00:44:25.982Z,4.70
2017-11-06T00:46:52.157Z,4.70
2017-11-06T00:49:18.327Z,4.70
2017-11-06T00:51:45.269Z,4.60
2017-11-06T00:54:12.201Z,4.60
2017-11-06T00:56:39.112Z,4.60
2017-11-06T00:59:05.508Z,4.60
2017-11-06T01:01:31.672Z,4.60
2017-11-06T01:03:57.829Z,4.60
2017-11-06T01:06:24.781Z,4.60
2017-11-06T01:08:51.732Z,4.60
2017-11-06T01:11:18.684Z,4.50
2017-11-06T01:13:44.861Z,4.50
2017-11-06T01:16:11.051Z,4.50
2017-11-06T01:18:37.215Z,4.60
2017-11-06T01:21:03.436Z,4.60
2017-11-06T01:23:30.337Z,4.50
2017-11-06T01:25:56.499Z,4.50
2017-11-06T01:28:23.724Z,4.50
2017-11-06T01:30:49.907Z,4.40
2017-11-06T01:33:16.113Z,4.40
2017-11-06T01:35:42.334Z,4.40
2017-11-06T01:38:08.541Z,4.40
2017-11-06T01:40:34.728Z,4.40
2017-11-06T01:43:01.716Z,4.40
2017-11-06T01:45:27.900Z,4.40
2017-11-06T01:47:54.828Z,4.30
2017-11-06T01:50:21.209Z,4.30
2017-11-06T01:52:47.386Z,4.30
2017-11-06T01:55:13.587Z,4.20
2017-11-06T01:57:39.825Z,4.20
2017-11-06T02:00:06.089Z,4.20
2017-11-06T02:02:33.052Z,4.20
2017-11-06T02:04:59.254Z,4.20
2017-11-06T02:07:25.438Z,4.20
2017-11-06T02:09:51.631Z,4.30
2017-11-06T02:12:19.614Z,4.30
2017-11-06T02:14:45.828Z,4.30
2017-11-06T02:17:12.761Z,4.50
2017-11-06T02:19:39.733Z,4.50
2017-11-06T02:22:05.947Z,4.40
2017-11-06T02:24:32.173Z,4.40
2017-11-06T02:26:59.117Z,4.40
2017-11-06T02:29:26.064Z,4.40
2017-11-06T02:31:53.044Z,4.40
2017-11-06T02:34:19.257Z,4.40
2017-11-06T02:36:45.450Z,4.40
2017-11-06T02:39:12.414Z,4.40
2017-11-06T02:41:38.611Z,4.30
2017-11-06T02:44:04.797Z,4.30
2017-11-06T02:46:30.966Z,4.30
2017-11-06T02:48:57.160Z,4.20
2017-11-06T02:51:23.333Z,4.30
2017-11-06T02:53:50.254Z,4.30
2017-11-06T02:56:16.444Z,4.30
2017-11-06T02:58:42.618Z,4.40
2017-11-06T03:01:08.822Z,4.40
2017-11-06T03:03:34.999Z,4.30
2017-11-06T03:06:01.184Z,4.30
2017-11-06T03:08:27.345Z,4.30
2017-11-06T03:10:54.602Z,4.20
2017-11-06T03:13:20.791Z,4.20
2017-11-06T03:15:46.955Z,4.30
2017-11-06T03:18:13.195Z,4.30
2017-11-06T03:20:39.670Z,4.30
2017-11-06T03:23:06.126Z,4.30
2017-11-06T03:25:33.083Z,4.30
2017-11-06T03:28:00.013Z,4.20
2017-11-06T03:30:26.205Z,4.20
2017-11-06T03:32:52.389Z,4.10
2017-11-06T03:35:19.313Z,4.00
2017-11-06T03:37:45.492Z,4.00
2017-11-06T03:40:11.686Z,4.10
2017-11-06T03:42:38.891Z,4.30
2017-11-06T03:45:05.330Z,4.20
2017-11-06T03:47:31.526Z,4.20
2017-11-06T03:49:57.978Z,4.20
2017-11-06T03:52:24.174Z,4.10
2017-11-06T03:54:50.343Z,4.20
2017-11-06T03:57:16.512Z,4.20
2017-11-06T03:59:43.422Z,4.30
2017-11-06T04:02:09.633Z,4.30
2017-11-06T04:04:35.818Z,4.20
2017-11-06T04:07:02.007Z,4.20
2017-11-06T04:09:28.182Z,4.20
2017-11-06T04:11:54.348Z,4.20
2017-11-06T04:14:20.752Z,4.20
2017-11-06T04:16:46.937Z,4.20
2017-11-06T04:19:13.843Z,4.20
2017-11-06T04:21:40.062Z,4.20
2017-11-06T04:24:06.231Z,4.30
2017-11-06T04:26:33.164Z,4.00
2017-11-06T04:28:59.398Z,4.00
2017-11-06T04:31:25.573Z,4.00
2017-11-06T04:33:51.770Z,4.00
2017-11-06T04:36:19.042Z,4.00
2017-11-06T04:38:45.271Z,4.00
2017-11-06T04:41:11.487Z,4.00
2017-11-06T04:43:37.713Z,4.00
2017-11-06T04:46:03.903Z,4.10
2017-11-06T04:48:30.916Z,4.10
2017-11-06T04:50:57.105Z,4.00
2017-11-06T04:53:24.028Z,4.10
2017-11-06T04:55:50.221Z,4.10
2017-11-06T04:58:16.405Z,4.20
2017-11-06T05:00:43.741Z,4.00
2017-11-06T05:03:11.456Z,4.10
2017-11-06T05:05:38.630Z,4.10
2017-11-06T05:08:04.847Z,4.00
2017-11-06T05:10:31.056Z,4.00
2017-11-06T05:12:57.217Z,4.00
2017-11-06T05:15:23.384Z,4.10
2017-11-06T05:17:50.291Z,4.00
2017-11-06T05:20:16.455Z,4.00
2017-11-06T05:22:43.397Z,4.10
2017-11-06T05:25:10.531Z,4.10
2017-11-06T05:27:37.470Z,4.00
2017-11-06T05:30:04.406Z,3.90
2017-11-06T05:32:30.580Z,3.90
2017-11-06T05:34:56.767Z,4.00
2017-11-06T05:37:23.693Z,4.10
2017-11-06T05:39:49.884Z,4.10
2017-11-06T05:42:16.094Z,4.10
2017-11-06T05:44:42.254Z,4.10
2017-11-06T05:47:08.424Z,4.00
2017-11-06T05:49:35.355Z,4.00
2017-11-06T05:52:02.284Z,4.00
2017-11-06T05:54:28.459Z,4.00
2017-11-06T05:56:54.646Z,3.90
2017-11-06T05:59:20.828Z,3.90
2017-11-06T06:01:47.005Z,3.90
2017-11-06T06:04:13.182Z,3.90
2017-11-06T06:06:39.369Z,3.90
2017-11-06T06:09:05.541Z,3.90
2017-11-06T06:11:31.703Z,3.90
2017-11-06T06:13:58.197Z,3.80
2017-11-06T06:16:24.384Z,3.80
2017-11-06T06:18:50.571Z,3.80
2017-11-06T06:21:16.790Z,3.80
2017-11-06T06:23:42.964Z,3.80
2017-11-06T06:26:09.883Z,3.80
2017-11-06T06:28:36.090Z,3.70
2017-11-06T06:31:02.271Z,3.90
2017-11-06T06:33:29.188Z,3.60
2017-11-06T06:35:55.585Z,3.60
2017-11-06T06:38:21.759Z,3.70
2017-11-06T06:40:47.912Z,3.70
2017-11-06T06:43:14.857Z,3.60
2017-11-06T06:45:41.780Z,3.50
2017-11-06T06:48:07.973Z,3.50
2017-11-06T06:50:34.461Z,3.50
2017-11-06T06:53:01.389Z,3.50
2017-11-06T06:55:28.332Z,3.40
2017-11-06T06:57:55.262Z,3.40
2017-11-06T07:00:21.493Z,3.40
2017-11-06T07:02:48.076Z,3.40
2017-11-06T07:05:14.268Z,3.40
2017-11-06T07:07:41.221Z,3.60
2017-11-06T07:10:09.111Z,3.70
2017-11-06T07:12:35.356Z,3.60
2017-11-06T07:15:01.558Z,3.60
2017-11-06T07:17:27.764Z,3.60
2017-11-06T07:19:54.681Z,3.50
2017-11-06T07:22:20.843Z,3.50
2017-11-06T07:24:48.027Z,3.40
2017-11-06T07:27:14.234Z,3.40
2017-11-06T07:29:40.424Z,3.40
2017-11-06T07:32:06.673Z,3.40
2017-11-06T07:34:33.589Z,3.50
2017-11-06T07:36:59.796Z,3.50
2017-11-06T07:39:25.974Z,3.60
2017-11-06T07:41:52.886Z,3.60
2017-11-06T07:44:19.136Z,3.60
2017-11-06T07:46:46.054Z,3.70
2017-11-06T07:49:12.976Z,3.70
2017-11-06T07:51:39.161Z,3.70
2017-11-06T07:54:06.068Z,3.80
2017-11-06T07:56:32.946Z,3.80
2017-11-06T07:58:59.531Z,3.80
2017-11-06T08:01:25.701Z,4.00
2017-11-06T08:03:53.454Z,4.10
2017-11-06T08:06:19.628Z,4.10
2017-11-06T08:08:45.818Z,4.20
2017-11-06T08:11:12.742Z,4.30
2017-11-06T08:13:38.916Z,4.20
2017-11-06T08:16:05.137Z,4.30
2017-11-06T08:18:32.041Z,4.40
2017-11-06T08:20:58.337Z,4.40
2017-11-06T08:23:25.230Z,4.40
2017-11-06T08:25:51.416Z,4.40
2017-11-06T08:28:18.700Z,4.50
2017-11-06T08:30:45.737Z,4.60
2017-11-06T08:33:12.285Z,4.60
2017-11-06T08:35:39.176Z,4.70
2017-11-06T08:38:05.866Z,4.80
2017-11-06T08:40:33.037Z,4.90
2017-11-06T08:42:59.992Z,5.00
2017-11-06T08:45:27.436Z,5.00
2017-11-06T08:47:54.665Z,5.00
2017-11-06T08:50:21.909Z,5.10
2017-11-06T08:52:49.333Z,5.20
2017-11-06T08:55:17.265Z,5.40
2017-11-06T08:57:44.817Z,5.40
2017-11-06T09:00:12.727Z,5.40
2017-11-06T09:02:38.912Z,5.40
2017-11-06T09:05:05.849Z,5.40
2017-11-06T09:07:32.074Z,5.40
2017-11-06T09:09:58.653Z,5.50
2017-11-06T09:12:24.832Z,5.50
2017-11-06T09:14:52.106Z,5.50
2017-11-06T09:17:19.388Z,5.70
2017-11-06T09:19:45.905Z,5.70
2017-11-06T09:22:12.648Z,5.80
2017-11-06T09:24:39.086Z,5.80
2017-11-06T09:27:05.497Z,5.90
2017-11-06T09:29:33.051Z,6.10
2017-11-06T09:32:00.150Z,6.10
2017-11-06T09:34:26.733Z,6.10
2017-11-06T09:36:54.229Z,6.40
2017-11-06T09:39:20.676Z,6.40
2017-11-06T09:41:47.331Z,6.40
2017-11-06T09:44:14.480Z,6.50
2017-11-06T09:46:41.129Z,6.50
2017-11-06T09:49:07.644Z,6.50
2017-11-06T09:51:34.687Z,6.60
2017-11-06T09:54:01.599Z,6.70
2017-11-06T09:56:28.462Z,6.80
2017-11-06T09:58:55.199Z,6.90
2017-11-06T10:01:21.965Z,7.00
2017-11-06T10:03:48.873Z,7.10
2017-11-06T10:06:15.669Z,7.10
2017-11-06T10:08:42.387Z,7.10
2017-11-06T10:11:09.449Z,7.20
2017-11-06T10:13:36.185Z,7.20
2017-11-06T10:16:02.829Z,7.30
2017-11-06T10:18:29.806Z,7.40
2017-11-06T10:20:57.009Z,7.70
2017-11-06T10:23:23.749Z,7.70
2017-11-06T10:25:50.596Z,7.80
2017-11-06T10:28:17.368Z,8.10
2017-11-06T10:30:44.803Z,8.10
2017-11-06T10:33:11.553Z,8.10
2017-11-06T10:35:38.576Z,8.20
2017-11-06T10:38:04.842Z,8.50
2017-11-06T10:40:32.159Z,9.30
2017-11-06T10:42:58.437Z,9.30
2017-11-06T10:45:25.393Z,8.90
2017-11-06T10:47:51.614Z,8.90
2017-11-06T10:50:17.845Z,8.80
2017-11-06T10:52:44.088Z,9.20
2017-11-06T10:55:10.321Z,9.60
2017-11-06T10:57:36.549Z,9.80
2017-11-06T11:00:02.839Z,9.70
2017-11-06T11:02:29.829Z,9.60
2017-11-06T11:04:56.054Z,9.50
2017-11-06T11:07:22.297Z,9.60
2017-11-06T11:09:48.557Z,9.70
2017-11-06T11:12:14.769Z,9.70
2017-11-06T11:14:41.005Z,9.70
2017-11-06T11:17:07.236Z,9.50
2017-11-06T11:19:33.498Z,9.60
2017-11-06T11:21:59.716Z,9.50
2017-11-06T11:24:26.721Z,9.70
2017-11-06T11:26:52.964Z,9.70
2017-11-06T11:29:19.172Z,10.30
2017-11-06T11:31:45.419Z,10.20
2017-11-06T11:34:11.640Z,10.10
2017-11-06T11:36:37.850Z,10.30
2017-11-06T11:39:04.140Z,10.10
2017-11-06T11:41:30.363Z,10.30
2017-11-06T11:43:56.664Z,10.20
2017-11-06T11:46:22.912Z,10.10
2017-11-06T11:48:49.897Z,9.90
2017-11-06T11:51:16.158Z,9.90
2017-11-06T11:53:43.134Z,10.00
2017-11-06T11:56:10.698Z,10.00
2017-11-06T11:58:37.952Z,9.90
2017-11-06T12:01:05.673Z,10.00
2017-11-06T12:03:31.986Z,10.00
2017-11-06T12:05:58.424Z,10.10
2017-11-06T12:08:24.660Z,10.20
2017-11-06T12:10:51.599Z,10.40
2017-11-06T12:13:17.802Z,10.30
2017-11-06T12:15:43.994Z,10.30
2017-11-06T12:18:10.909Z,10.60
2017-11-06T12:20:37.131Z,10.60
2017-11-06T12:23:03.334Z,10.80
2017-11-06T12:25:29.544Z,10.90
2017-11-06T12:27:55.897Z,11.20
2017-11-06T12:30:22.126Z,11.50
2017-11-06T12:32:48.321Z,11.50
2017-11-06T12:35:15.269Z,11.40
2017-11-06T12:37:41.444Z,11.40
2017-11-06T12:40:07.596Z,11.80
2017-11-06T12:42:34.678Z,11.90
2017-11-06T12:45:00.877Z,11.90
2017-11-06T12:47:27.794Z,11.90
2017-11-06T12:49:54.289Z,11.80
2017-11-06T12:52:20.463Z,11.90
2017-11-06T12:54:46.629Z,12.00
2017-11-06T12:57:12.843Z,11.80
2017-11-06T12:59:39.769Z,12.80
2017-11-06T13:02:05.942Z,12.80
2017-11-06T13:04:32.140Z,13.60
2017-11-06T13:06:59.367Z,13.60
2017-11-06T13:09:25.584Z,13.60
2017-11-06T13:11:51.765Z,13.70
2017-11-06T13:14:17.956Z,13.70
2017-11-06T13:16:44.158Z,13.80
2017-11-06T13:19:10.425Z,13.90
2017-11-06T13:21:37.366Z,13.10
2017-11-06T13:24:03.585Z,13.10
2017-11-06T13:26:30.534Z,13.00
2017-11-06T13:28:56.713Z,13.00
2017-11-06T13:31:22.897Z,12.70
2017-11-06T13:33:50.582Z,12.60
2017-11-06T13:36:17.142Z,12.60
2017-11-06T13:38:43.773Z,12.40
2017-11-06T13:41:11.795Z,11.80
2017-11-06T13:43:39.325Z,11.70
2017-11-06T13:46:06.093Z,11.50
2017-11-06T13:48:33.279Z,11.10
2017-11-06T13:50:59.458Z,11.10
2017-11-06T13:53:25.768Z,10.70
2017-11-06T13:55:52.176Z,10.30
2017-11-06T13:58:18.936Z,10.10
2017-11-06T14:00:45.182Z,10.00
2017-11-06T14:03:11.838Z,9.90
2017-11-06T14:05:39.108Z,10.00
2017-11-06T14:08:06.176Z,10.00
2017-11-06T14:10:32.377Z,10.00
2017-11-06T14:12:59.329Z,9.80
2017-11-06T14:15:26.395Z,9.70
2017-11-06T14:17:52.889Z,9.70
2017-11-06T14:20:19.083Z,9.50
2017-11-06T14:22:45.321Z,9.30
2017-11-06T14:25:11.694Z,9.20
2017-11-06T14:27:38.617Z,9.00
2017-11-06T14:30:05.760Z,8.90
2017-11-06T14:32:32.293Z,8.90
2017-11-06T14:34:58.917Z,8.70
2017-11-06T14:37:25.510Z,8.70
2017-11-06T14:39:52.227Z,8.60
2017-11-06T14:42:18.747Z,8.50
2017-11-06T14:44:45.297Z,8.50
2017-11-06T14:47:11.927Z,8.40
2017-11-06T14:49:38.464Z,8.30
2017-11-06T14:52:05.475Z,8.20
2017-11-06T14:54:31.732Z,8.20
2017-11-06T14:56:58.349Z,8.30
2017-11-06T14:59:24.546Z,8.30
2017-11-06T15:01:50.825Z,8.30
2017-11-06T15:04:17.380Z,8.40
2017-11-06T15:06:45.373Z,8.30
2017-11-06T15:09:12.244Z,8.30
2017-11-06T15:11:38.543Z,8.30
2017-11-06T15:14:05.916Z,8.20
2017-11-06T15:16:32.856Z,8.20
2017-11-06T15:18:59.728Z,8.10
2017-11-06T15:21:26.774Z,8.00
2017-11-06T15:23:53.177Z,7.90
2017-11-06T15:26:19.906Z,7.80
2017-11-06T15:28:46.127Z,7.70
2017-11-06T15:31:12.606Z,7.70
2017-11-06T15:33:39.732Z,7.60
2017-11-06T15:36:05.956Z,7.60
2017-11-06T15:38:33.224Z,7.60
2017-11-06T15:41:00.562Z,7.60
2017-11-06T15:43:27.308Z,7.50
2017-11-06T15:45:53.968Z,7.50
2017-11-06T15:48:20.601Z,7.50
2017-11-06T15:50:47.609Z,7.40
2017-11-06T15:53:13.808Z,7.40
2017-11-06T15:55:41.207Z,7.40
2017-11-06T15:58:07.937Z,7.40
2017-11-06T16:00:34.173Z,7.40
2017-11-06T16:03:00.354Z,7.40
2017-11-06T16:05:27.333Z,7.30
2017-11-06T16:07:53.561Z,7.30
2017-11-06T16:10:20.000Z,7.30
2017-11-06T16:12:46.528Z,7.20
2017-11-06T16:15:13.023Z,7.20
2017-11-06T16:17:39.210Z,7.20
2017-11-06T16:20:06.605Z,7.20
2017-11-06T16:22:33.534Z,7.10
2017-11-06T16:25:00.529Z,7.10
2017-11-06T16:27:26.724Z,7.00
2017-11-06T16:29:53.786Z,7.00
2017-11-06T16:32:20.746Z,7.00
2017-11-06T16:34:47.852Z,6.90
2017-11-06T16:37:14.917Z,6.90
2017-11-06T16:39:42.596Z,6.90
2017-11-06T16:42:09.524Z,6.90
2017-11-06T16:44:36.658Z,6.80
2017-11-06T16:47:02.887Z,6.80
2017-11-06T16:49:29.410Z,6.70
2017-11-06T16:51:55.888Z,6.70
2017-11-06T16:54:22.176Z,6.70
2017-11-06T16:56:48.827Z,6.70
2017-11-06T16:59:16.025Z,6.70
2017-11-06T17:01:42.262Z,6.70
2017-11-06T17:04:08.810Z,6.70
2017-11-06T17:06:35.098Z,6.70
2017-11-06T17:09:01.483Z,6.70
2017-11-06T17:11:28.715Z,6.70
2017-11-06T17:13:56.166Z,6.70
2017-11-06T17:16:22.428Z,6.80
2017-11-06T17:18:48.797Z,6.80
2017-11-06T17:21:15.045Z,6.80
2017-11-06T17:23:41.817Z,6.80
2017-11-06T17:26:08.732Z,6.70
2017-11-06T17:28:36.028Z,6.70
2017-11-06T17:31:03.032Z,6.70
2017-11-06T17:33:29.814Z,6.70
2017-11-06T17:35:56.899Z,6.70
2017-11-06T17:38:24.296Z,6.70
2017-11-06T17:40:50.484Z,6.70
2017-11-06T17:43:17.901Z,6.70
2017-11-06T17:45:45.219Z,6.80
2017-11-06T17:48:12.138Z,6.70
2017-11-06T17:50:39.194Z,6.60
2017-11-06T17:53:06.076Z,6.60
2017-11-06T17:55:32.963Z,6.50
2017-11-06T17:58:00.134Z,6.60
2017-11-06T18:00:26.960Z,6.60
2017-11-06T18:02:53.659Z,6.50
2017-11-06T18:05:20.866Z,6.50
2017-11-06T18:07:47.343Z,6.50
2017-11-06T18:10:14.051Z,6.30
2017-11-06T18:12:40.452Z,6.20
2017-11-06T18:15:07.161Z,6.30
2017-11-06T18:17:34.109Z,6.30
2017-11-06T18:20:01.040Z,6.20
2017-11-06T18:22:27.243Z,6.20
2017-11-06T18:24:53.460Z,6.20
2017-11-06T18:27:19.912Z,6.10
2017-11-06T18:29:46.683Z,6.10
2017-11-06T18:32:13.884Z,6.10
2017-11-06T18:34:40.396Z,6.10
2017-11-06T18:37:06.790Z,6.10
2017-11-06T18:39:33.100Z,5.90
2017-11-06T18:41:59.389Z,5.80
2017-11-06T18:44:25.684Z,5.70
2017-11-06T18:46:52.733Z,5.70
2017-11-06T18:49:19.657Z,5.70
2017-11-06T18:51:45.832Z,5.70
2017-11-06T18:54:12.284Z,5.60
2017-11-06T18:56:38.537Z,5.60
2017-11-06T18:59:04.736Z,5.60
2017-11-06T19:01:31.471Z,5.60
2017-11-06T19:03:59.241Z,5.60
2017-11-06T19:06:25.452Z,5.60
2017-11-06T19:08:52.756Z,5.60
2017-11-06T19:11:19.498Z,5.60
2017-11-06T19:13:45.769Z,5.60
2017-11-06T19:16:12.523Z,5.50
2017-11-06T19:18:38.762Z,5.50
2017-11-06T19:21:06.227Z,5.40
2017-11-06T19:23:33.946Z,5.50
2017-11-06T19:26:00.785Z,5.50
2017-11-06T19:28:28.546Z,5.40
2017-11-06T19:30:56.442Z,5.40
2017-11-06T19:33:24.355Z,5.30
2017-11-06T19:35:51.643Z,5.30
2017-11-06T19:38:18.363Z,5.30
2017-11-06T19:40:44.644Z,5.40
2017-11-06T19:43:11.829Z,5.30
2017-11-06T19:45:38.257Z,5.30
2017-11-06T19:48:05.416Z,5.30
2017-11-06T19:50:32.572Z,5.30
2017-11-06T19:52:58.980Z,5.30
2017-11-06T19:55:26.090Z,5.40
2017-11-06T19:57:52.352Z,5.30
2017-11-06T20:00:19.989Z,5.30
2017-11-06T20:02:47.125Z,5.30
2017-11-06T20:05:13.373Z,5.20
2017-11-06T20:07:39.595Z,5.20
2017-11-06T20:10:05.774Z,5.20
2017-11-06T20:12:31.952Z,5.20
2017-11-06T20:14:58.159Z,5.20
2017-11-06T20:17:25.227Z,5.20
2017-11-06T20:19:51.658Z,5.20
2017-11-06T20:22:18.267Z,5.20
2017-11-06T20:24:44.533Z,5.20
2017-11-06T20:27:10.819Z,5.20
2017-11-06T20:29:37.770Z,5.30
2017-11-06T20:32:04.876Z,5.20
2017-11-06T20:34:31.087Z,5.20
2017-11-06T20:36:57.400Z,5.10
2017-11-06T20:39:23.613Z,5.00
2017-11-06T20:41:49.961Z,4.90
2017-11-06T20:44:16.244Z,4.90
2017-11-06T20:46:42.759Z,4.90
2017-11-06T20:49:08.972Z,4.90
2017-11-06T20:51:35.185Z,5.00
2017-11-06T20:54:01.636Z,5.00
2017-11-06T20:56:27.969Z,5.00
2017-11-06T20:58:54.158Z,5.00
2017-11-06T21:01:20.337Z,5.00
2017-11-06T21:03:47.441Z,4.90
2017-11-06T21:06:13.622Z,4.80
2017-11-06T21:08:39.802Z,4.80
2017-11-06T21:11:05.984Z,4.80
2017-11-06T21:13:32.928Z,4.80
2017-11-06T21:15:59.116Z,4.80
2017-11-06T21:18:26.967Z,4.80
2017-11-06T21:20:53.305Z,4.70
2017-11-06T21:23:19.497Z,4.80
2017-11-06T21:25:46.463Z,4.80
2017-11-06T21:28:12.638Z,4.80
2017-11-06T21:30:45.045Z,4.80
2017-11-06T21:33:11.991Z,4.50
2017-11-06T21:35:38.190Z,4.50
2017-11-06T21:38:04.376Z,4.40
2017-11-06T21:40:30.596Z,4.20
2017-11-06T21:42:56.782Z,4.20
2017-11-06T21:45:23.712Z,4.20
2017-11-06T21:47:49.953Z,4.20
2017-11-06T21:50:17.301Z,4.30
2017-11-06T21:52:43.904Z,4.30
2017-11-06T21:55:11.748Z,4.30
2017-11-06T21:57:37.922Z,4.30
2017-11-06T22:00:04.136Z,4.30
2017-11-06T22:02:30.335Z,4.30
2017-11-06T22:04:56.525Z,4.30
2017-11-06T22:07:23.454Z,4.30
2017-11-06T22:09:49.649Z,4.20
2017-11-06T22:12:16.023Z,4.30
2017-11-06T22:14:43.058Z,4.20
2017-11-06T22:17:10.258Z,4.20
2017-11-06T22:19:36.443Z,4.10
2017-11-06T22:22:03.617Z,4.20
2017-11-06T22:24:30.076Z,4.10
2017-11-06T22:26:56.672Z,4.10
2017-11-06T22:29:22.866Z,4.10
2017-11-06T22:31:49.060Z,4.10
2017-11-06T22:34:15.232Z,4.20
2017-11-06T22:36:41.425Z,4.10
2017-11-06T22:39:07.621Z,4.10
2017-11-06T22:41:33.784Z,4.10
2017-11-06T22:43:59.998Z,4.00
2017-11-06T22:46:27.040Z,4.00
2017-11-06T22:48:53.212Z,3.90
2017-11-06T22:51:19.385Z,3.80
2017-11-06T22:53:45.760Z,3.80
2017-11-06T22:56:11.938Z,3.80
2017-11-06T22:58:38.120Z,3.80
2017-11-06T23:01:05.217Z,3.80
2017-11-06T23:03:31.409Z,3.80
2017-11-06T23:05:58.353Z,4.00
2017-11-06T23:08:24.549Z,4.00
2017-11-06T23:10:50.757Z,4.20
2017-11-06T23:13:16.926Z,4.10
2017-11-06T23:15:43.237Z,4.10
2017-11-06T23:18:09.561Z,4.10
2017-11-06T23:20:35.735Z,4.10
2017-11-06T23:23:02.669Z,3.90
2017-11-06T23:25:28.845Z,3.90
2017-11-06T23:27:55.065Z,3.80
2017-11-06T23:30:21.254Z,3.70
2017-11-06T23:32:48.223Z,3.60
2017-11-06T23:35:14.402Z,3.60
2017-11-06T23:37:40.598Z,3.60
2017-11-06T23:40:06.805Z,3.50
2017-11-06T23:42:32.994Z,3.50
2017-11-06T23:44:59.209Z,3.40
2017-11-06T23:47:25.798Z,3.40
2017-11-06T23:49:52.006Z,3.30
2017-11-06T23:52:18.956Z,3.30
2017-11-06T23:54:45.988Z,3.20
2017-11-06T23:57:12.934Z,3.20
2017-11-06T23:59:39.852Z,3.10
